createdAt,value
2018-09-29T00:01:33.331Z,3.77
2018-09-29T00:04:38.124Z,3.07
2018-09-29T00:07:42.791Z,1.80
2018-09-29T00:10:47.556Z,2.23
2018-09-29T00:13:52.415Z,1.90
2018-09-29T00:16:57.163Z,1.90
2018-09-29T00:20:01.917Z,2.10
2018-09-29T00:23:06.801Z,2.40
2018-09-29T00:26:11.551Z,2.13
2018-09-29T00:29:16.364Z,2.10
2018-09-29T00:32:20.977Z,2.13
2018-09-29T00:35:25.816Z,1.90
2018-09-29T00:38:30.669Z,4.40
2018-09-29T00:41:35.422Z,3.73
2018-09-29T00:44:40.235Z,3.00
2018-09-29T00:47:44.917Z,3.97
2018-09-29T00:50:49.558Z,4.87
2018-09-29T00:53:54.360Z,3.90
2018-09-29T00:56:59.022Z,4.00
2018-09-29T01:00:04.013Z,3.33
2018-09-29T01:03:08.723Z,2.60
2018-09-29T01:06:13.511Z,2.93
2018-09-29T01:09:18.091Z,3.93
2018-09-29T01:12:22.864Z,3.53
2018-09-29T01:15:27.506Z,2.40
2018-09-29T01:18:32.211Z,1.93
2018-09-29T01:21:36.998Z,2.80
2018-09-29T01:24:41.773Z,2.20
2018-09-29T01:27:46.479Z,2.47
2018-09-29T01:30:51.232Z,2.00
2018-09-29T01:33:55.879Z,2.47
2018-09-29T01:37:00.635Z,1.80
2018-09-29T01:40:05.564Z,1.80
2018-09-29T01:43:10.200Z,2.03
2018-09-29T01:46:14.961Z,2.70
2018-09-29T01:49:19.810Z,1.87
2018-09-29T01:52:24.573Z,2.23
2018-09-29T01:55:29.348Z,2.27
2018-09-29T01:58:34.008Z,1.80
2018-09-29T02:01:38.602Z,1.57
2018-09-29T02:04:43.290Z,2.30
2018-09-29T02:07:47.987Z,2.03
2018-09-29T02:10:52.987Z,2.07
2018-09-29T02:13:57.678Z,1.90
2018-09-29T02:17:02.312Z,1.97
2018-09-29T02:20:07.032Z,2.67
2018-09-29T02:23:11.695Z,2.17
2018-09-29T02:26:16.303Z,1.83
2018-09-29T02:29:20.981Z,1.87
2018-09-29T02:32:25.562Z,1.63
2018-09-29T02:35:30.121Z,1.70
2018-09-29T02:38:34.717Z,2.40
2018-09-29T02:41:39.484Z,3.07
2018-09-29T02:44:44.099Z,3.03
2018-09-29T02:47:48.743Z,2.17
2018-09-29T02:50:53.491Z,2.43
2018-09-29T02:53:58.457Z,2.53
2018-09-29T02:57:03.016Z,2.30
2018-09-29T03:00:07.773Z,2.60
2018-09-29T03:03:12.401Z,2.13
2018-09-29T03:06:17.111Z,2.60
2018-09-29T03:09:21.715Z,2.13
2018-09-29T03:12:26.341Z,2.37
2018-09-29T03:15:30.972Z,2.43
2018-09-29T03:18:35.623Z,3.03
2018-09-29T03:21:40.252Z,2.30
2018-09-29T03:24:44.997Z,2.47
2018-09-29T03:27:49.686Z,2.33
2018-09-29T03:30:54.365Z,2.20
2018-09-29T03:33:59.108Z,2.47
2018-09-29T03:37:03.820Z,2.77
2018-09-29T03:40:08.909Z,2.57
2018-09-29T03:43:13.638Z,3.20
2018-09-29T03:46:18.401Z,3.10
2018-09-29T03:49:22.961Z,2.53
2018-09-29T03:52:27.694Z,2.70
2018-09-29T03:55:32.363Z,2.50
2018-09-29T03:58:37.097Z,2.57
2018-09-29T04:01:41.838Z,2.40
2018-09-29T04:04:46.669Z,2.20
2018-09-29T04:07:51.337Z,1.80
2018-09-29T04:10:56.204Z,2.50
2018-09-29T04:14:01.082Z,2.53
2018-09-29T04:17:05.622Z,2.43
2018-09-29T04:20:10.222Z,2.37
2018-09-29T04:23:14.803Z,2.03
2018-09-29T04:26:19.759Z,2.20
2018-09-29T04:29:24.449Z,2.03
2018-09-29T04:32:29.064Z,2.57
2018-09-29T04:35:33.683Z,2.23
2018-09-29T04:38:38.348Z,2.57
2018-09-29T04:41:43.015Z,3.60
2018-09-29T04:44:47.744Z,2.97
2018-09-29T04:47:52.360Z,2.63
2018-09-29T04:50:56.956Z,2.53
2018-09-29T04:54:01.976Z,2.60
2018-09-29T04:57:07.012Z,2.70
2018-09-29T05:00:11.770Z,2.43
2018-09-29T05:03:16.383Z,2.03
2018-09-29T05:06:20.971Z,2.97
2018-09-29T05:09:25.623Z,2.60
2018-09-29T05:12:30.240Z,2.43
2018-09-29T05:15:34.789Z,2.90
2018-09-29T05:18:39.557Z,2.90
2018-09-29T05:21:44.341Z,3.20
2018-09-29T05:24:49.230Z,2.73
2018-09-29T05:27:53.807Z,3.07
2018-09-29T05:30:58.637Z,3.27
2018-09-29T05:34:03.257Z,2.77
2018-09-29T05:37:07.971Z,2.87
2018-09-29T05:40:12.987Z,3.47
2018-09-29T05:43:17.691Z,2.57
2018-09-29T05:46:22.452Z,2.63
2018-09-29T05:49:27.358Z,3.20
2018-09-29T05:52:32.080Z,3.83
2018-09-29T05:55:36.861Z,4.20
2018-09-29T05:58:41.618Z,3.20
2018-09-29T06:01:46.393Z,3.00
2018-09-29T06:04:51.149Z,3.20
2018-09-29T06:07:55.924Z,3.40
2018-09-29T06:11:00.725Z,3.17
2018-09-29T06:14:05.495Z,3.20
2018-09-29T06:17:10.241Z,3.50
2018-09-29T06:20:14.899Z,2.87
2018-09-29T06:23:19.546Z,2.97
2018-09-29T06:26:24.203Z,3.23
2018-09-29T06:29:28.956Z,3.07
2018-09-29T06:32:33.802Z,3.50
2018-09-29T06:35:38.434Z,2.67
2018-09-29T06:38:43.116Z,2.97
2018-09-29T06:41:47.811Z,3.67
2018-09-29T06:44:52.731Z,3.67
2018-09-29T06:47:57.352Z,2.77
2018-09-29T06:51:01.865Z,3.20
2018-09-29T06:54:06.455Z,2.60
2018-09-29T06:57:11.194Z,2.43
2018-09-29T07:00:15.886Z,2.50
2018-09-29T07:03:20.615Z,2.60
2018-09-29T07:06:25.391Z,2.73
2018-09-29T07:09:30.170Z,2.97
2018-09-29T07:12:34.675Z,2.57
2018-09-29T07:15:39.300Z,2.23
2018-09-29T07:18:44.045Z,2.50
2018-09-29T07:21:48.747Z,1.97
2018-09-29T07:24:53.436Z,2.80
2018-09-29T07:27:58.001Z,2.00
2018-09-29T07:31:02.707Z,2.27
2018-09-29T07:34:07.550Z,2.67
2018-09-29T07:37:12.307Z,2.60
2018-09-29T07:40:16.900Z,2.53
2018-09-29T07:43:21.595Z,2.47
2018-09-29T07:46:26.216Z,2.00
2018-09-29T07:49:31.769Z,2.17
2018-09-29T07:52:36.405Z,2.20
2018-09-29T07:55:41.130Z,2.03
2018-09-29T07:58:45.759Z,2.10
2018-09-29T08:01:50.456Z,2.23
2018-09-29T08:04:55.066Z,2.20
2018-09-29T08:07:59.747Z,2.43
2018-09-29T08:11:04.601Z,2.10
2018-09-29T08:14:09.398Z,2.00
2018-09-29T08:17:14.123Z,2.13
2018-09-29T08:20:18.773Z,2.03
2018-09-29T08:23:23.472Z,1.93
2018-09-29T08:26:28.141Z,2.27
2018-09-29T08:29:32.818Z,2.20
2018-09-29T08:32:37.622Z,2.17
2018-09-29T08:35:42.290Z,2.53
2018-09-29T08:38:47.116Z,2.07
2018-09-29T08:41:51.674Z,2.00
2018-09-29T08:44:56.301Z,1.87
2018-09-29T08:48:00.956Z,2.20
2018-09-29T08:51:05.793Z,1.97
2018-09-29T08:54:10.521Z,2.20
2018-09-29T08:57:15.211Z,2.47
2018-09-29T09:00:19.941Z,2.23
2018-09-29T09:03:24.666Z,2.30
2018-09-29T09:06:29.299Z,1.70
2018-09-29T09:09:34.097Z,1.93
2018-09-29T09:12:39.826Z,2.33
2018-09-29T09:15:44.699Z,1.63
2018-09-29T09:18:49.453Z,2.13
2018-09-29T09:21:54.537Z,2.30
2018-09-29T09:24:59.397Z,1.90
2018-09-29T09:28:04.073Z,1.97
2018-09-29T09:31:08.760Z,2.13
2018-09-29T09:34:13.507Z,2.10
2018-09-29T09:37:18.212Z,1.80
2018-09-29T09:40:23.058Z,2.03
2018-09-29T09:43:28.047Z,2.00
2018-09-29T09:46:33.193Z,1.63
2018-09-29T09:49:37.922Z,1.50
2018-09-29T09:52:42.573Z,1.77
2018-09-29T09:55:47.266Z,1.83
2018-09-29T09:58:52.647Z,1.67
2018-09-29T10:02:02.400Z,1.37
2018-09-29T10:05:07.125Z,1.70
2018-09-29T10:08:11.810Z,1.43
2018-09-29T10:11:16.560Z,1.43
2018-09-29T10:14:21.334Z,1.43
2018-09-29T10:17:26.098Z,1.40
2018-09-29T10:20:31.430Z,1.60
2018-09-29T10:23:36.276Z,1.60
2018-09-29T10:26:40.836Z,2.10
2018-09-29T10:29:45.511Z,1.63
2018-09-29T10:32:50.227Z,1.30
2018-09-29T10:35:55.024Z,1.40
2018-09-29T10:38:59.690Z,1.87
2018-09-29T10:42:04.398Z,1.37
2018-09-29T10:45:09.039Z,1.63
2018-09-29T10:48:13.862Z,1.30
2018-09-29T10:51:18.586Z,1.13
2018-09-29T10:54:23.186Z,1.33
2018-09-29T10:57:27.960Z,1.40
2018-09-29T11:00:32.635Z,1.20
2018-09-29T11:03:37.440Z,1.20
2018-09-29T11:06:42.220Z,1.60
2018-09-29T11:09:47.118Z,1.50
2018-09-29T11:12:51.746Z,1.50
2018-09-29T11:15:56.414Z,1.43
2018-09-29T11:19:01.410Z,1.20
2018-09-29T11:22:06.074Z,1.33
2018-09-29T11:25:10.943Z,2.00
2018-09-29T11:28:15.728Z,1.30
2018-09-29T11:31:20.395Z,1.47
2018-09-29T11:34:25.063Z,1.50
2018-09-29T11:37:29.804Z,1.50
2018-09-29T11:40:34.755Z,1.30
2018-09-29T11:43:39.493Z,1.40
2018-09-29T11:46:44.548Z,1.30
2018-09-29T11:49:49.185Z,1.43
2018-09-29T11:52:53.914Z,1.43
2018-09-29T11:55:58.617Z,1.40
2018-09-29T11:59:03.348Z,1.10
2018-09-29T12:02:08.278Z,1.70
2018-09-29T12:05:12.905Z,1.20
2018-09-29T12:08:17.557Z,1.40
2018-09-29T12:11:22.157Z,1.70
2018-09-29T12:14:26.703Z,1.63
2018-09-29T12:17:31.330Z,2.30
2018-09-29T12:20:35.903Z,1.33
2018-09-29T12:23:40.516Z,1.80
2018-09-29T12:26:45.193Z,1.20
2018-09-29T12:29:50.923Z,1.63
2018-09-29T12:32:55.478Z,1.30
2018-09-29T12:36:00.135Z,1.27
2018-09-29T12:39:06.086Z,1.50
2018-09-29T12:42:11.748Z,1.27
2018-09-29T12:45:16.672Z,2.40
2018-09-29T12:48:21.282Z,1.37
2018-09-29T12:51:25.984Z,2.07
2018-09-29T12:54:30.776Z,1.23
2018-09-29T12:57:35.559Z,1.53
2018-09-29T13:00:40.398Z,1.97
2018-09-29T13:03:44.965Z,1.20
2018-09-29T13:06:49.710Z,1.50
2018-09-29T13:09:54.331Z,1.23
2018-09-29T13:12:59.274Z,1.80
2018-09-29T13:16:04.087Z,1.63
2018-09-29T13:19:08.799Z,1.60
2018-09-29T13:22:13.544Z,1.63
2018-09-29T13:25:18.280Z,1.50
2018-09-29T13:28:23.176Z,1.23
2018-09-29T13:31:27.962Z,1.57
2018-09-29T13:34:32.652Z,1.50
2018-09-29T13:37:37.602Z,1.87
2018-09-29T13:40:42.213Z,1.70
2018-09-29T13:43:46.931Z,1.40
2018-09-29T13:46:51.506Z,1.27
2018-09-29T13:49:56.115Z,1.47
2018-09-29T13:53:00.702Z,1.47
2018-09-29T13:56:05.763Z,1.40
2018-09-29T13:59:10.392Z,1.60
2018-09-29T14:02:15.127Z,1.10
2018-09-29T14:05:19.905Z,1.50
2018-09-29T14:08:24.637Z,1.60
2018-09-29T14:11:29.226Z,1.27
2018-09-29T14:14:34.076Z,1.33
2018-09-29T14:17:38.774Z,1.17
2018-09-29T14:20:43.593Z,1.30
2018-09-29T14:23:48.542Z,1.50
2018-09-29T14:26:53.278Z,1.50
2018-09-29T14:29:58.084Z,1.70
2018-09-29T14:33:02.745Z,1.40
2018-09-29T14:36:07.756Z,1.43
2018-09-29T14:39:12.715Z,1.07
2018-09-29T14:42:17.431Z,1.27
2018-09-29T14:45:22.191Z,1.73
2018-09-29T14:48:26.784Z,1.30
2018-09-29T14:51:31.666Z,1.10
2018-09-29T14:54:36.204Z,1.40
2018-09-29T14:57:40.953Z,1.60
2018-09-29T15:00:45.647Z,1.37
2018-09-29T15:03:50.542Z,1.07
2018-09-29T15:06:56.251Z,1.93
2018-09-29T15:10:01.093Z,1.40
2018-09-29T15:13:06.190Z,1.30
2018-09-29T15:16:10.886Z,1.60
2018-09-29T15:19:15.626Z,1.20
2018-09-29T15:22:20.284Z,1.30
2018-09-29T15:25:24.947Z,1.10
2018-09-29T15:28:29.815Z,1.10
2018-09-29T15:31:34.511Z,1.03
2018-09-29T15:34:39.202Z,1.87
2018-09-29T15:37:43.979Z,1.30
2018-09-29T15:40:48.599Z,1.17
2018-09-29T15:43:53.292Z,1.00
2018-09-29T15:46:58.269Z,1.30
2018-09-29T15:50:03.076Z,1.87
2018-09-29T15:53:07.921Z,1.50
2018-09-29T15:56:13.268Z,1.23
2018-09-29T15:59:18.164Z,1.20
2018-09-29T16:02:23.060Z,1.40
2018-09-29T16:05:27.612Z,1.70
2018-09-29T16:08:32.248Z,1.47
2018-09-29T16:11:36.960Z,2.30
2018-09-29T16:14:41.546Z,2.60
2018-09-29T16:17:46.657Z,1.30
2018-09-29T16:20:51.423Z,1.83
2018-09-29T16:23:56.325Z,1.80
2018-09-29T16:27:01.018Z,1.60
2018-09-29T16:30:05.794Z,2.43
2018-09-29T16:33:10.454Z,1.53
2018-09-29T16:36:15.149Z,1.30
2018-09-29T16:39:19.905Z,1.50
2018-09-29T16:42:25.106Z,1.60
2018-09-29T16:45:30.024Z,1.30
2018-09-29T16:48:34.691Z,1.70
2018-09-29T16:51:39.620Z,1.80
2018-09-29T16:54:44.330Z,1.87
2018-09-29T16:57:49.044Z,1.70
2018-09-29T17:00:53.823Z,1.30
2018-09-29T17:03:58.708Z,1.77
2018-09-29T17:07:03.457Z,1.97
2018-09-29T17:10:08.241Z,1.67
2018-09-29T17:13:15.105Z,1.60
2018-09-29T17:16:19.826Z,1.50
2018-09-29T17:19:24.539Z,2.70
2018-09-29T17:22:29.289Z,1.63
2018-09-29T17:25:33.929Z,2.03
2018-09-29T17:28:38.610Z,1.97
2018-09-29T17:31:43.719Z,2.17
2018-09-29T17:34:48.491Z,3.10
2018-09-29T17:37:53.536Z,3.03
2018-09-29T17:40:58.411Z,3.10
2018-09-29T17:44:03.374Z,3.83
2018-09-29T17:47:08.213Z,3.63
2018-09-29T17:50:12.937Z,3.33
2018-09-29T17:53:17.762Z,3.40
2018-09-29T17:56:22.359Z,3.40
2018-09-29T17:59:27.089Z,3.83
2018-09-29T18:02:31.907Z,3.73
2018-09-29T18:05:36.768Z,3.50
2018-09-29T18:08:41.409Z,3.30
2018-09-29T18:11:46.150Z,3.87
2018-09-29T18:14:50.829Z,3.87
2018-09-29T18:17:55.865Z,5.77
2018-09-29T18:21:00.530Z,5.60
2018-09-29T18:24:05.375Z,5.77
2018-09-29T18:27:10.226Z,6.73
2018-09-29T18:30:14.949Z,4.83
2018-09-29T18:33:19.626Z,4.17
2018-09-29T18:36:24.497Z,2.40
2018-09-29T18:39:29.387Z,2.80
2018-09-29T18:42:34.102Z,2.20
2018-09-29T18:45:38.905Z,2.30
2018-09-29T18:48:43.650Z,3.50
2018-09-29T18:51:48.397Z,2.93
2018-09-29T18:54:53.671Z,4.80
2018-09-29T18:57:58.810Z,8.07
2018-09-29T19:01:03.729Z,4.40
2018-09-29T19:04:08.826Z,4.90
2018-09-29T19:07:13.866Z,4.13
2018-09-29T19:10:18.737Z,4.10
2018-09-29T19:13:23.409Z,3.60
2018-09-29T19:16:28.127Z,3.20
2018-09-29T19:19:32.985Z,3.23
2018-09-29T19:22:37.883Z,3.60
2018-09-29T19:25:42.863Z,3.20
2018-09-29T19:28:47.780Z,3.50
2018-09-29T19:31:52.490Z,3.90
2018-09-29T19:34:57.180Z,3.57
2018-09-29T19:38:01.795Z,3.57
2018-09-29T19:41:06.641Z,3.90
2018-09-29T19:44:11.526Z,3.13
2018-09-29T19:47:16.297Z,3.33
2018-09-29T19:50:21.195Z,3.53
2018-09-29T19:53:25.779Z,3.90
2018-09-29T19:56:30.460Z,3.97
2018-09-29T19:59:35.591Z,4.20
2018-09-29T20:02:40.370Z,4.57
2018-09-29T20:05:46.302Z,3.67
2018-09-29T20:08:51.026Z,3.73
2018-09-29T20:11:56.072Z,4.40
2018-09-29T20:15:00.785Z,4.73
2018-09-29T20:18:05.545Z,4.50
2018-09-29T20:21:10.238Z,4.00
2018-09-29T20:24:14.920Z,3.67
2018-09-29T20:27:19.538Z,2.57
2018-09-29T20:30:24.162Z,2.60
2018-09-29T20:33:28.943Z,2.87
2018-09-29T20:36:33.982Z,3.17
2018-09-29T20:39:38.885Z,2.63
2018-09-29T20:42:43.526Z,2.70
2018-09-29T20:45:48.163Z,3.00
2018-09-29T20:48:52.839Z,2.60
2018-09-29T20:55:12.201Z,2.43
2018-09-29T20:58:16.636Z,5.20
2018-09-29T21:01:21.233Z,3.87
2018-09-29T21:04:25.664Z,7.90
2018-09-29T21:07:30.149Z,6.37
2018-09-29T21:10:34.650Z,5.33
2018-09-29T21:13:39.190Z,4.43
2018-09-29T21:16:43.767Z,5.73
2018-09-29T21:19:48.290Z,6.30
2018-09-29T21:22:53.023Z,7.53
2018-09-29T21:25:57.620Z,6.37
2018-09-29T21:29:02.185Z,4.90
2018-09-29T21:32:06.771Z,4.87
2018-09-29T21:35:11.271Z,3.70
2018-09-29T21:38:15.823Z,3.30
2018-09-29T21:41:20.386Z,3.60
2018-09-29T21:44:24.967Z,3.83
2018-09-29T21:47:29.581Z,4.80
2018-09-29T21:50:34.036Z,4.63
2018-09-29T21:53:38.488Z,5.00
2018-09-29T21:56:42.976Z,4.77
2018-09-29T21:59:47.428Z,3.30
2018-09-29T22:02:52.041Z,3.50
2018-09-29T22:05:56.509Z,3.83
2018-09-29T22:09:01.268Z,4.07
2018-09-29T22:12:05.778Z,4.00
2018-09-29T22:15:10.286Z,4.33
2018-09-29T22:18:14.914Z,4.50
2018-09-29T22:21:19.676Z,4.70
2018-09-29T22:24:24.152Z,4.57
2018-09-29T22:27:28.773Z,4.57
2018-09-29T22:30:33.235Z,4.40
2018-09-29T22:33:37.811Z,4.20
2018-09-29T22:36:42.346Z,3.90
2018-09-29T22:39:46.857Z,4.70
2018-09-29T22:42:51.288Z,3.30
2018-09-29T22:45:55.831Z,3.47
2018-09-29T22:49:00.409Z,3.57
2018-09-29T22:52:04.999Z,2.90
2018-09-29T22:55:09.471Z,2.80
2018-09-29T22:58:14.006Z,2.83
2018-09-29T23:01:18.498Z,2.67
2018-09-29T23:04:22.913Z,3.00
2018-09-29T23:07:27.410Z,2.80
2018-09-29T23:10:31.869Z,2.67
2018-09-29T23:13:36.380Z,2.63
2018-09-29T23:16:40.939Z,2.90
2018-09-29T23:19:45.355Z,3.00
2018-09-29T23:22:49.928Z,2.77
2018-09-29T23:25:54.502Z,2.70
2018-09-29T23:28:58.984Z,2.97
2018-09-29T23:32:03.641Z,3.20
2018-09-29T23:35:08.113Z,2.77
2018-09-29T23:38:12.712Z,3.53
2018-09-29T23:41:17.326Z,2.60
2018-09-29T23:44:21.861Z,2.50
2018-09-29T23:47:26.311Z,2.77
2018-09-29T23:50:30.807Z,2.57
2018-09-29T23:53:35.354Z,2.53
2018-09-29T23:56:39.934Z,2.50
2018-09-29T23:59:44.458Z,2.80
